CMA CGM Balzac — DIHN — position and weather

sailwx.info

Track history (hours):
 
Tides and Currents Weather Stations Pressure Air Temp Water Temp Dewpoint Dewpoint Depression Visibility Wind Speed Wind Dir Waves Ship Positions

CMA CGM Balzac

Last reported at 2016-Dec-23 00:05 UTC. Time now 2017-Jan-18 18:03 UTC.
Position N 02°02' E 102°10'.
Warning: this ship's position is 26 days out of date.

Length 300.3 m; beam 40.3 m; draft 14 m.

Type: Ship. MMSI: 211378810.

Date/timePositionNaut miles runAvg speedWind from/ knotsBaromVisibWave heightAir tempDewpointWater temp
2016-Dec-23 00:05N 02°02' E 102°10'815.0
2016-Dec-22 23:33N 01°57' E 102°16'1514.8
2016-Dec-22 22:33N 01°50' E 102°29'1414.2
2016-Dec-22 21:33N 01°44' E 102°42'6812.8
2016-Dec-22 16:13N 01°15' E 103°44'3 0.2
2016-Dec-22 01:32N 01°15' E 103°47'0 0.0
2016-Dec-21 23:28N 01°15' E 103°47'0 0.4
2016-Dec-21 22:29N 01°15' E 103°47'6 6.4
2016-Dec-21 21:31N 01°13' E 103°52'5 4.9
2016-Dec-21 20:33N 01°14' E 103°57'  
2016-Dec-18 05:15N 22°19' E 114°05'3 0.3
2016-Dec-17 16:05N 22°21' E 114°02'4 0.2
2016-Dec-16 20:24N 22°21' E 114°07'3 3.9
2016-Dec-16 19:33N 22°18' E 114°06'25414.9
2016-Dec-16 02:28N 23°48' E 118°24'40516.2
2016-Dec-15 01:30N 29°29' E 122°29'1414.7
2016-Dec-15 00:32N 29°42' E 122°21'1111.1
2016-Dec-14 23:32N 29°50' E 122°13'1212.3
2016-Dec-14 22:33N 29°56' E 122°01'9 9.0
2016-Dec-14 21:32N 29°57' E 121°50'0 0.0
2016-Dec-14 20:28N 29°57' E 121°50'0 0.0
2016-Dec-14 18:32N 29°57' E 121°50'0 0.0
2016-Dec-14 15:30N 29°57' E 121°50'0 0.0
2016-Dec-14 11:12N 29°57' E 121°50'0 0.0
2016-Dec-14 09:17N 29°57' E 121°50'0 0.0
2016-Dec-14 08:20N 29°57' E 121°50'0 0.0
2016-Dec-14 02:18N 29°57' E 121°50'1 1.4
2016-Dec-14 01:32N 29°58' E 121°50'2 2.2
2016-Dec-14 00:34N 29°58' E 121°53'9 9.2
2016-Dec-13 23:33N 29°56' E 122°03'1312.7
2016-Dec-13 22:33N 29°48' E 122°15'9 9.0
2016-Dec-13 21:33N 29°44' E 122°24'9 8.7
2016-Dec-13 20:34N 29°42' E 122°34'3 0.5
2016-Dec-13 14:23N 29°43' E 122°37'0 0.0
2016-Dec-13 12:22N 29°43' E 122°37'0 0.0
2016-Dec-13 11:03N 29°43' E 122°37'0 0.0
2016-Dec-13 10:33N 29°43' E 122°37'0 0.0
2016-Dec-13 09:27N 29°43' E 122°37'0 0.0
2016-Dec-13 01:05N 29°43' E 122°37'  
Track history (hours):
 
Tides and Currents Weather Stations Pressure Air Temp Water Temp Dewpoint Dewpoint Depression Visibility Wind Speed Wind Dir Waves Ship Positions

CMA CGM Balzac

Last reported at 2016-Dec-23 00:05 UTC. Time now 2017-Jan-18 18:03 UTC.
Position N 02°02' E 102°10'.
Warning: this ship's position is 26 days out of date.

Length 300.3 m; beam 40.3 m; draft 14 m.

Type: Ship. MMSI: 211378810.

Date/timePositionNaut miles runAvg speedWind from/ knotsBaromVisibWave heightAir tempDewpointWater temp
2016-Dec-23 00:05N 02°02' E 102°10'815.0
2016-Dec-22 23:33N 01°57' E 102°16'1514.8
2016-Dec-22 22:33N 01°50' E 102°29'1414.2
2016-Dec-22 21:33N 01°44' E 102°42'6812.8
2016-Dec-22 16:13N 01°15' E 103°44'3 0.2
2016-Dec-22 01:32N 01°15' E 103°47'0 0.0
2016-Dec-21 23:28N 01°15' E 103°47'0 0.4
2016-Dec-21 22:29N 01°15' E 103°47'6 6.4
2016-Dec-21 21:31N 01°13' E 103°52'5 4.9
2016-Dec-21 20:33N 01°14' E 103°57'  
2016-Dec-18 05:15N 22°19' E 114°05'3 0.3
2016-Dec-17 16:05N 22°21' E 114°02'4 0.2
2016-Dec-16 20:24N 22°21' E 114°07'3 3.9
2016-Dec-16 19:33N 22°18' E 114°06'25414.9
2016-Dec-16 02:28N 23°48' E 118°24'40516.2
2016-Dec-15 01:30N 29°29' E 122°29'1414.7
2016-Dec-15 00:32N 29°42' E 122°21'1111.1
2016-Dec-14 23:32N 29°50' E 122°13'1212.3
2016-Dec-14 22:33N 29°56' E 122°01'9 9.0
2016-Dec-14 21:32N 29°57' E 121°50'0 0.0
2016-Dec-14 20:28N 29°57' E 121°50'0 0.0
2016-Dec-14 18:32N 29°57' E 121°50'0 0.0
2016-Dec-14 15:30N 29°57' E 121°50'0 0.0
2016-Dec-14 11:12N 29°57' E 121°50'0 0.0
2016-Dec-14 09:17N 29°57' E 121°50'0 0.0
2016-Dec-14 08:20N 29°57' E 121°50'0 0.0
2016-Dec-14 02:18N 29°57' E 121°50'1 1.4
2016-Dec-14 01:32N 29°58' E 121°50'2 2.2
2016-Dec-14 00:34N 29°58' E 121°53'9 9.2
2016-Dec-13 23:33N 29°56' E 122°03'1312.7
2016-Dec-13 22:33N 29°48' E 122°15'9 9.0
2016-Dec-13 21:33N 29°44' E 122°24'9 8.7
2016-Dec-13 20:34N 29°42' E 122°34'3 0.5
2016-Dec-13 14:23N 29°43' E 122°37'0 0.0
2016-Dec-13 12:22N 29°43' E 122°37'0 0.0
2016-Dec-13 11:03N 29°43' E 122°37'0 0.0
2016-Dec-13 10:33N 29°43' E 122°37'0 0.0
2016-Dec-13 09:27N 29°43' E 122°37'0 0.0
2016-Dec-13 01:05N 29°43' E 122°37'  

Dump ship's entire track history